Time;durP1;ratioP1;P1;durP2;ratioP2;P2;SDS_P1;SDS_P2;PMS_P1;PMS_P2;Temp;Humidity;BMP_temperature;BMP_pressure;BME280_temperature;BME280_humidity;BME280_pressure;Samples;Min_cycle;Max_cycle;Signal;HPM_P1;HPM_P2
2021/10/23 00:00:47;;;;;;;10.80;4.10;;;;;;;9.92;91.09;101618.44;5036213;28;20037;-71
2021/10/23 00:03:13;;;;;;;13.30;5.30;;;;;;;9.91;91.41;101623.16;5033447;28;20386;-71
2021/10/23 00:05:38;;;;;;;21.48;5.53;;;;;;;9.91;91.14;101627.88;4998337;28;20026;-71
2021/10/23 00:08:04;;;;;;;14.18;5.78;;;;;;;9.89;91.39;101627.28;4983306;28;20140;-71
2021/10/23 00:10:30;;;;;;;16.13;5.80;;;;;;;9.89;91.50;101621.72;5020015;28;20664;-71
2021/10/23 00:12:55;;;;;;;16.98;6.13;;;;;;;9.88;91.63;101623.66;5035097;28;20030;-71
2021/10/23 00:15:21;;;;;;;20.30;7.47;;;;;;;9.84;91.27;101628.09;5031933;28;20025;-71
2021/10/23 00:17:46;;;;;;;19.48;6.90;;;;;;;9.85;91.75;101618.66;5024820;28;20033;-71
2021/10/23 00:20:12;;;;;;;16.05;6.50;;;;;;;9.87;92.10;101615.63;5031987;28;20100;-71
2021/10/23 00:22:37;;;;;;;16.02;6.68;;;;;;;9.86;91.82;101609.22;5031329;28;20029;-71
2021/10/23 00:25:03;;;;;;;18.50;7.05;;;;;;;9.85;91.50;101618.66;5031791;28;20057;-71
2021/10/23 00:27:30;;;;;;;17.10;6.38;;;;;;;9.84;91.71;101617.00;5033561;28;20133;-71
2021/10/23 00:29:58;;;;;;;15.77;5.93;;;;;;;9.82;91.49;101614.47;5010143;28;20061;-71
2021/10/23 00:32:24;;;;;;;17.00;6.70;;;;;;;9.82;92.03;101606.13;5032802;28;20068;-71
2021/10/23 00:34:50;;;;;;;16.67;6.47;;;;;;;9.81;91.61;101609.19;5014811;28;20103;-71
2021/10/23 00:37:15;;;;;;;17.40;6.53;;;;;;;9.81;91.76;101604.47;5033302;28;20030;-72
2021/10/23 00:39:41;;;;;;;16.50;6.72;;;;;;;9.79;91.84;101597.50;5032813;28;20048;-71
2021/10/23 00:42:06;;;;;;;14.10;6.35;;;;;;;9.80;92.08;101600.00;5033033;28;20092;-71
2021/10/23 00:44:39;;;;;;;15.23;6.15;;;;;;;9.78;91.94;101593.91;5033966;28;20022;-71
2021/10/23 00:47:09;;;;;;;12.82;5.63;;;;;;;9.78;92.09;101596.69;5002987;28;20035;-71
2021/10/23 00:49:36;;;;;;;14.00;5.57;;;;;;;9.78;91.94;101598.63;4984528;28;20025;-71
2021/10/23 00:52:03;;;;;;;13.80;5.88;;;;;;;9.78;91.95;101595.84;5033980;28;20042;-71
2021/10/23 00:54:28;;;;;;;12.05;4.85;;;;;;;9.77;91.92;101594.16;5032505;28;20025;-71
2021/10/23 00:56:54;;;;;;;11.52;4.80;;;;;;;9.76;91.96;101595.25;4984311;28;20033;-71
2021/10/23 00:59:20;;;;;;;9.52;4.60;;;;;;;9.76;92.11;101582.22;5001780;28;20029;-71
2021/10/23 01:01:46;;;;;;;13.88;5.10;;;;;;;9.74;92.07;101578.88;5026292;28;20026;-71
2021/10/23 01:04:11;;;;;;;12.05;5.25;;;;;;;9.75;92.11;101593.56;5038398;28;20072;-71
2021/10/23 01:06:37;;;;;;;9.70;4.30;;;;;;;9.72;91.97;101589.41;4985345;28;20088;-71
2021/10/23 01:09:03;;;;;;;10.65;4.03;;;;;;;9.70;91.72;101591.59;5018969;28;20030;-71
2021/10/23 01:11:28;;;;;;;8.90;4.60;;;;;;;9.68;92.48;101590.19;5023168;28;20431;-71
2021/10/23 01:13:54;;;;;;;9.55;4.38;;;;;;;9.69;92.78;101591.84;5001789;28;20048;-71
2021/10/23 01:16:19;;;;;;;9.73;4.45;;;;;;;9.68;92.47;101591.03;5016596;28;20025;-71
2021/10/23 01:18:45;;;;;;;8.75;4.03;;;;;;;9.68;92.23;101587.41;5016271;28;20044;-71
2021/10/23 01:21:10;;;;;;;8.52;3.80;;;;;;;9.68;92.50;101587.41;5030883;28;20025;-72
2021/10/23 01:23:36;;;;;;;10.35;3.97;;;;;;;9.65;92.42;101590.72;4999006;28;20401;-71
2021/10/23 01:26:02;;;;;;;10.48;4.20;;;;;;;9.67;92.69;101589.34;4984768;28;20037;-71
2021/10/23 01:28:27;;;;;;;7.40;3.60;;;;;;;9.63;92.51;101591.78;5017933;28;20044;-71
2021/10/23 01:30:56;;;;;;;7.03;3.58;;;;;;;9.66;92.26;101592.38;5003034;28;20034;-71
2021/10/23 01:33:22;;;;;;;6.60;3.30;;;;;;;9.66;92.33;101592.38;5036006;28;20034;-71
2021/10/23 01:35:47;;;;;;;7.88;3.60;;;;;;;9.65;92.20;101593.50;5036665;28;20032;-71
2021/10/23 01:38:13;;;;;;;6.38;3.58;;;;;;;9.65;92.57;101596.25;5037763;28;20033;-71
2021/10/23 01:40:38;;;;;;;8.68;3.85;;;;;;;9.61;92.63;101601.47;5037770;28;20040;-71
2021/10/23 01:43:04;;;;;;;6.75;3.67;;;;;;;9.61;92.52;101594.00;5016094;28;20037;-71
2021/10/23 01:45:30;;;;;;;7.85;3.53;;;;;;;9.63;92.68;101597.34;5036248;28;20083;-71
2021/10/23 01:47:55;;;;;;;9.48;3.50;;;;;;;9.61;92.75;101591.25;5037719;28;20032;-71
2021/10/23 01:50:22;;;;;;;8.52;3.30;;;;;;;9.59;92.29;101587.88;5035135;28;20052;-71
2021/10/23 01:52:48;;;;;;;7.38;3.13;;;;;;;9.59;92.78;101582.34;5020741;28;20041;-71
2021/10/23 01:55:14;;;;;;;6.93;3.20;;;;;;;9.59;92.40;101587.06;5004028;28;20037;-71
2021/10/23 01:57:40;;;;;;;6.45;3.22;;;;;;;9.57;92.60;101586.47;5036146;28;20501;-71
2021/10/23 02:00:07;;;;;;;5.32;3.13;;;;;;;9.56;92.98;101571.75;5033717;28;20029;-71
2021/10/23 02:02:32;;;;;;;5.00;2.83;;;;;;;9.57;92.54;101584.53;5037973;28;20029;-71
2021/10/23 02:04:58;;;;;;;8.05;3.40;;;;;;;9.56;92.76;101580.09;5018290;28;20033;-71
2021/10/23 02:07:23;;;;;;;10.27;3.95;;;;;;;9.57;93.00;101578.16;5036083;28;20068;-71
2021/10/23 02:09:49;;;;;;;5.90;3.13;;;;;;;9.57;92.68;101578.16;5026504;28;20084;-71
2021/10/23 02:12:14;;;;;;;5.78;3.13;;;;;;;9.57;92.79;101578.16;5027327;28;20029;-71
2021/10/23 02:14:40;;;;;;;7.93;3.30;;;;;;;9.55;92.67;101580.34;5007947;28;20025;-71
2021/10/23 02:17:05;;;;;;;5.40;2.80;;;;;;;9.54;92.43;101571.19;5036607;28;20506;-71
2021/10/23 02:19:31;;;;;;;6.47;3.20;;;;;;;9.54;92.57;101571.19;5041653;28;20393;-71
2021/10/23 02:21:57;;;;;;;6.07;2.75;;;;;;;9.51;92.96;101574.47;5002669;28;20048;-71
2021/10/23 02:24:23;;;;;;;6.43;3.30;;;;;;;9.52;93.09;101570.59;5035440;28;20533;-71
2021/10/23 02:26:48;;;;;;;4.60;2.88;;;;;;;9.54;92.99;101570.34;5037258;28;20078;-71
2021/10/23 02:29:14;;;;;;;5.80;2.40;;;;;;;9.54;92.75;101573.13;4997395;28;20391;-71
2021/10/23 02:31:39;;;;;;;5.60;3.05;;;;;;;9.52;92.85;101567.00;5028927;28;20478;-71
2021/10/23 02:34:05;;;;;;;6.22;2.47;;;;;;;9.52;92.92;101567.00;5035074;28;20041;-71
2021/10/23 02:36:30;;;;;;;6.38;3.08;;;;;;;9.50;92.84;101570.03;5035942;28;20044;-71
2021/10/23 02:38:57;;;;;;;5.28;2.67;;;;;;;9.47;92.98;101567.81;5036351;28;20037;-71
2021/10/23 02:41:24;;;;;;;5.45;2.72;;;;;;;9.45;92.88;101569.97;5032521;28;20502;-71
2021/10/23 02:43:50;;;;;;;6.80;3.15;;;;;;;9.49;93.33;101571.13;5027586;28;20030;-71
2021/10/23 02:46:16;;;;;;;6.03;3.05;;;;;;;9.48;92.80;101571.41;4995651;28;20029;-71
2021/10/23 02:48:42;;;;;;;6.90;3.20;;;;;;;9.47;93.10;101566.94;5017629;28;20040;-71
2021/10/23 02:51:08;;;;;;;4.95;2.58;;;;;;;9.46;93.07;101560.56;5033049;28;20053;-71
2021/10/23 02:53:33;;;;;;;4.70;2.90;;;;;;;9.47;92.84;101555.84;5017681;28;20472;-71
2021/10/23 02:55:59;;;;;;;8.20;2.65;;;;;;;9.44;92.94;101562.75;4987077;28;20029;-71
2021/10/23 02:58:24;;;;;;;4.57;2.50;;;;;;;9.47;93.00;101564.16;5002035;28;20041;-71
2021/10/23 03:00:50;;;;;;;6.32;2.67;;;;;;;9.46;93.34;101565.28;5001793;28;20079;-71
2021/10/23 03:03:15;;;;;;;5.55;2.70;;;;;;;9.42;93.27;101559.41;4999846;28;20060;-71
2021/10/23 03:05:41;;;;;;;5.05;2.70;;;;;;;9.43;93.23;101555.53;5027791;28;20044;-71
2021/10/23 03:08:07;;;;;;;4.10;2.70;;;;;;;9.42;93.21;101559.41;4985880;28;20037;-71
2021/10/23 03:10:32;;;;;;;4.15;2.88;;;;;;;9.41;93.11;101557.72;5035303;28;20045;-71
2021/10/23 03:12:58;;;;;;;8.18;2.80;;;;;;;9.39;93.50;101562.72;5032240;28;20037;-71
2021/10/23 03:15:23;;;;;;;5.80;2.85;;;;;;;9.38;93.07;101563.78;5029505;28;20029;-71
2021/10/23 03:17:49;;;;;;;4.18;2.60;;;;;;;9.40;93.23;101567.16;5036656;28;20036;-71
2021/10/23 03:20:15;;;;;;;5.28;2.92;;;;;;;9.42;93.40;101575.19;5020097;28;20026;-71
2021/10/23 03:22:40;;;;;;;5.80;2.92;;;;;;;9.38;93.34;101566.56;5035081;28;20032;-71
2021/10/23 03:25:06;;;;;;;7.45;3.20;;;;;;;9.40;93.31;101556.06;5035400;28;20065;-71
2021/10/23 03:27:32;;;;;;;6.43;2.83;;;;;;;9.37;93.31;101549.09;5033313;28;20041;-71
2021/10/23 03:29:57;;;;;;;4.25;2.47;;;;;;;9.36;93.47;101552.13;5017223;28;20045;-72
2021/10/23 03:32:22;;;;;;;4.82;2.47;;;;;;;9.36;93.24;101552.97;4983730;28;20038;-71
2021/10/23 03:34:48;;;;;;;5.63;2.50;;;;;;;9.36;93.45;101549.34;5034032;28;20025;-71
2021/10/23 03:37:13;;;;;;;4.10;2.50;;;;;;;9.34;93.69;101546.84;5019605;28;20029;-71
2021/10/23 03:39:39;;;;;;;6.28;2.80;;;;;;;9.33;93.36;101549.88;5033745;28;20398;-71
2021/10/23 03:42:05;;;;;;;6.20;2.90;;;;;;;9.34;93.43;101551.56;5033930;28;20035;-71
2021/10/23 03:44:31;;;;;;;4.50;3.03;;;;;;;9.36;93.64;101560.44;5032270;28;20025;-71
2021/10/23 03:46:56;;;;;;;5.18;3.38;;;;;;;9.34;93.64;101557.13;5036045;28;20041;-71
2021/10/23 03:49:22;;;;;;;4.93;3.00;;;;;;;9.34;93.28;101551.56;5015688;28;20080;-71
2021/10/23 03:51:47;;;;;;;5.68;3.17;;;;;;;9.31;93.58;101546.53;5001643;28;20029;-71
2021/10/23 03:54:13;;;;;;;5.30;2.90;;;;;;;9.32;93.73;101556.53;5033543;28;20036;-72
2021/10/23 03:56:38;;;;;;;4.18;2.97;;;;;;;9.29;93.37;101559.81;5034791;28;20036;-71
2021/10/23 03:59:04;;;;;;;5.90;3.30;;;;;;;9.30;93.59;101561.47;5031693;28;20036;-71
2021/10/23 04:01:29;;;;;;;7.53;3.15;;;;;;;9.33;93.51;101560.97;5033294;28;20034;-71
2021/10/23 04:03:55;;;;;;;5.30;3.42;;;;;;;9.29;93.45;101559.81;5033139;28;20489;-71
2021/10/23 04:06:20;;;;;;;4.97;3.30;;;;;;;9.28;93.75;101549.84;5033050;28;20105;-71
2021/10/23 04:08:46;;;;;;;5.22;2.80;;;;;;;9.27;93.81;101557.28;5034380;28;20029;-71
2021/10/23 04:11:11;;;;;;;4.35;2.72;;;;;;;9.27;93.85;101550.91;5017198;28;20063;-71
2021/10/23 04:13:37;;;;;;;4.53;2.80;;;;;;;9.26;93.88;101549.25;5035271;28;20040;-71
2021/10/23 04:16:03;;;;;;;6.07;3.33;;;;;;;9.26;93.87;101550.09;5033289;28;20068;-71
2021/10/23 04:18:28;;;;;;;6.47;3.03;;;;;;;9.27;93.96;101562.00;5027773;28;20032;-71
2021/10/23 04:20:54;;;;;;;4.75;3.13;;;;;;;9.26;93.93;101555.63;5039038;28;20040;-71
2021/10/23 04:23:19;;;;;;;5.20;3.30;;;;;;;9.25;93.92;101542.03;5030349;28;20056;-71
2021/10/23 04:25:45;;;;;;;6.03;3.67;;;;;;;9.23;93.75;101539.53;5034687;28;20041;-71
2021/10/23 04:28:10;;;;;;;5.45;3.40;;;;;;;9.22;93.77;101548.94;5017784;28;20056;-71
2021/10/23 04:30:35;;;;;;;6.85;3.42;;;;;;;9.22;94.06;101548.09;5017046;28;20470;-71
2021/10/23 04:33:01;;;;;;;6.07;3.20;;;;;;;9.22;94.02;101548.09;4999850;28;20034;-71
2021/10/23 04:35:26;;;;;;;5.78;2.90;;;;;;;9.20;94.09;101542.00;5002812;28;20026;-71
2021/10/23 04:37:52;;;;;;;5.30;3.25;;;;;;;9.22;93.83;101545.31;4982853;28;20022;-71
2021/10/23 04:40:17;;;;;;;6.07;2.83;;;;;;;9.23;94.20;101539.53;4998695;28;20037;-71
2021/10/23 04:42:43;;;;;;;5.10;3.00;;;;;;;9.21;94.16;101540.88;5002670;28;20030;-71
2021/10/23 04:45:09;;;;;;;6.10;3.20;;;;;;;9.21;93.69;101532.56;5021257;28;20033;-71
2021/10/23 04:47:35;;;;;;;5.93;3.25;;;;;;;9.18;94.21;101526.44;4984959;28;20697;-71
2021/10/23 04:50:00;;;;;;;5.85;3.28;;;;;;;9.20;94.30;101542.00;5030414;28;20056;-71
2021/10/23 04:52:26;;;;;;;5.65;3.17;;;;;;;9.18;93.68;101542.22;5026765;28;20026;-71
2021/10/23 04:54:51;;;;;;;5.50;3.00;;;;;;;9.19;94.27;101546.66;5001634;28;20037;-71
2021/10/23 04:57:17;;;;;;;7.60;3.00;;;;;;;9.16;94.01;101539.75;4998565;28;20036;-70
2021/10/23 04:59:42;;;;;;;5.43;3.28;;;;;;;9.17;94.12;101546.94;5016677;28;20440;-71
2021/10/23 05:02:08;;;;;;;6.85;3.83;;;;;;;9.17;94.24;101546.09;5036328;28;20032;-71
2021/10/23 05:04:33;;;;;;;5.72;3.20;;;;;;;9.16;94.20;101548.06;5003939;28;20037;-71
2021/10/23 05:06:58;;;;;;;5.63;3.50;;;;;;;9.14;94.50;101547.47;4988985;28;20021;-71
2021/10/23 05:09:24;;;;;;;4.97;3.08;;;;;;;9.14;94.25;101536.38;5003301;28;20034;-71
2021/10/23 05:11:49;;;;;;;6.68;3.20;;;;;;;9.13;94.25;101534.69;5019703;28;20041;-71
2021/10/23 05:14:15;;;;;;;5.10;3.33;;;;;;;9.13;94.31;101537.47;4986695;28;20025;-71
2021/10/23 05:16:41;;;;;;;5.72;3.40;;;;;;;9.12;94.46;101538.56;5038843;28;20029;-71
2021/10/23 05:19:06;;;;;;;6.22;3.03;;;;;;;9.12;94.32;101534.97;5041403;28;20033;-71
2021/10/23 05:21:32;;;;;;;4.68;3.17;;;;;;;9.10;94.08;101534.38;5035999;28;20481;-71
2021/10/23 05:23:58;;;;;;;4.82;3.42;;;;;;;9.10;94.18;101532.44;5001681;28;20061;-71
2021/10/23 05:26:24;;;;;;;5.50;3.15;;;;;;;9.09;94.55;101528.00;5018934;28;20060;-71
2021/10/23 05:28:49;;;;;;;5.40;3.47;;;;;;;9.09;94.35;101527.16;5003457;28;20041;-71
2021/10/23 05:31:15;;;;;;;5.93;3.30;;;;;;;9.09;94.79;101536.31;4989313;28;20025;-71
2021/10/23 05:33:40;;;;;;;5.05;2.97;;;;;;;9.07;94.50;101530.19;5001172;28;20367;-70
2021/10/23 05:36:06;;;;;;;4.85;3.15;;;;;;;9.07;94.63;101538.50;5036210;28;20021;-70
2021/10/23 05:38:31;;;;;;;5.70;3.30;;;;;;;9.06;94.36;101539.59;5002272;28;22329;-70
2021/10/23 05:40:57;;;;;;;6.05;2.95;;;;;;;9.06;94.61;101531.28;5018272;28;20037;-71
2021/10/23 05:43:22;;;;;;;4.93;2.97;;;;;;;9.03;94.56;101531.81;5003917;28;20183;-71
2021/10/23 05:45:48;;;;;;;6.70;3.53;;;;;;;9.06;94.72;101536.00;4988883;28;20037;-71
2021/10/23 05:48:14;;;;;;;4.95;3.17;;;;;;;9.07;94.11;101535.72;5002978;28;20413;-71
2021/10/23 05:50:40;;;;;;;6.65;3.72;;;;;;;9.04;94.77;101544.56;4986824;28;20026;-71
2021/10/23 05:53:05;;;;;;;5.70;3.30;;;;;;;9.03;94.51;101537.34;5035876;28;20033;-71
2021/10/23 05:55:31;;;;;;;6.53;4.10;;;;;;;9.02;94.37;101537.59;4986953;28;20018;-70
2021/10/23 05:57:56;;;;;;;5.13;3.40;;;;;;;9.01;94.51;101535.94;5002991;28;20095;-70
2021/10/23 06:00:22;;;;;;;5.63;3.25;;;;;;;9.01;94.79;101536.78;5003827;28;20030;-70
2021/10/23 06:02:48;;;;;;;5.88;3.70;;;;;;;8.96;94.62;101525.63;5027619;28;20109;-70
2021/10/23 06:05:13;;;;;;;6.13;3.40;;;;;;;8.95;94.71;101516.47;5020436;28;20379;-71
2021/10/23 06:07:40;;;;;;;4.22;3.28;;;;;;;8.98;94.59;101525.38;5016301;28;20084;-71
2021/10/23 06:10:09;;;;;;;7.82;3.80;;;;;;;8.97;94.81;101518.13;5030742;28;20053;-71
2021/10/23 06:12:35;;;;;;;7.30;3.53;;;;;;;8.94;94.64;101520.34;5036400;28;20429;-71
2021/10/23 06:15:01;;;;;;;7.40;4.05;;;;;;;8.92;94.59;101514.22;4990831;28;20026;-71
2021/10/23 06:17:27;;;;;;;8.25;3.10;;;;;;;8.94;94.80;101513.94;4986958;28;20049;-71
2021/10/23 06:19:53;;;;;;;7.50;3.72;;;;;;;8.94;94.80;101513.94;4994323;28;20036;-71
2021/10/23 06:22:18;;;;;;;6.28;3.35;;;;;;;8.92;94.61;101516.16;5015782;28;20466;-71
2021/10/23 06:24:44;;;;;;;5.72;3.35;;;;;;;8.90;94.55;101512.81;5001999;28;20045;-71
2021/10/23 06:27:09;;;;;;;5.25;3.00;;;;;;;8.87;94.63;101513.31;5003621;28;20041;-71
2021/10/23 06:29:35;;;;;;;6.45;3.20;;;;;;;8.87;94.57;101519.69;5004051;28;20022;-71
2021/10/23 06:32:00;;;;;;;5.95;3.00;;;;;;;8.85;94.74;101521.06;5019728;28;20041;-71
2021/10/23 06:34:26;;;;;;;5.00;3.13;;;;;;;8.83;94.86;101520.47;4987028;28;20037;-71
2021/10/23 06:36:52;;;;;;;6.03;3.40;;;;;;;8.84;94.96;101524.94;4985537;28;20401;-71
2021/10/23 06:39:17;;;;;;;4.88;3.28;;;;;;;8.80;94.79;101521.81;4998286;28;20474;-71
2021/10/23 06:41:43;;;;;;;4.85;3.35;;;;;;;8.78;94.95;101525.97;5005030;28;20033;-71
2021/10/23 06:44:09;;;;;;;5.05;3.33;;;;;;;8.77;94.89;101529.81;5036633;28;20104;-71
2021/10/23 06:46:38;;;;;;;5.22;3.15;;;;;;;8.77;94.79;101529.81;5036536;28;20033;-69
2021/10/23 06:49:04;;;;;;;5.45;3.10;;;;;;;8.77;95.12;101535.34;4999749;28;20025;-69
2021/10/23 06:51:29;;;;;;;5.30;3.30;;;;;;;8.77;94.89;101538.13;5031465;28;20041;-69
2021/10/23 06:53:56;;;;;;;4.72;3.28;;;;;;;8.76;94.91;101544.75;5000792;28;20045;-69
2021/10/23 06:56:22;;;;;;;3.47;3.00;;;;;;;8.73;94.97;101544.19;5002190;28;20037;-71
2021/10/23 06:58:48;;;;;;;6.13;3.10;;;;;;;8.75;95.33;101545.84;5004132;28;20148;-70
2021/10/23 07:01:13;;;;;;;8.55;3.38;;;;;;;8.79;95.45;101547.03;5025018;28;20033;-78
2021/10/23 07:03:39;;;;;;;4.57;2.90;;;;;;;8.79;95.92;101544.25;5028173;28;20117;-69
2021/10/23 07:06:04;;;;;;;4.30;2.97;;;;;;;8.81;95.66;101547.59;5033826;28;20058;-69
2021/10/23 07:08:30;;;;;;;5.22;3.03;;;;;;;8.79;95.61;101549.78;5034344;28;20029;-69
2021/10/23 07:10:55;;;;;;;4.45;2.92;;;;;;;8.79;95.44;101552.56;5032039;28;20029;-69
2021/10/23 07:13:21;;;;;;;4.13;2.63;;;;;;;8.78;95.44;101550.88;5017597;28;20037;-68
2021/10/23 07:15:46;;;;;;;4.18;3.03;;;;;;;8.78;95.39;101559.19;5065248;28;20040;-69
2021/10/23 07:18:12;;;;;;;6.05;3.03;;;;;;;8.80;95.17;101557.81;5016128;28;20034;-69
2021/10/23 07:20:37;;;;;;;6.40;3.28;;;;;;;8.82;95.19;101561.19;5033845;28;20064;-69
2021/10/23 07:23:03;;;;;;;6.63;3.30;;;;;;;8.84;95.20;101555.41;5038673;28;20034;-69
2021/10/23 07:25:28;;;;;;;5.13;3.20;;;;;;;8.83;95.19;101562.88;5012483;28;20077;-69
2021/10/23 07:27:54;;;;;;;5.68;3.50;;;;;;;8.84;95.34;101569.25;5034132;28;20030;-69
2021/10/23 07:30:19;;;;;;;6.22;3.40;;;;;;;8.86;94.99;101573.44;5002356;28;20033;-69
2021/10/23 07:32:45;;;;;;;5.38;3.30;;;;;;;8.89;95.40;101572.94;5034124;28;20030;-69
2021/10/23 07:35:10;;;;;;;4.97;3.13;;;;;;;8.93;95.63;101578.78;5016440;28;20026;-69
2021/10/23 07:37:36;;;;;;;8.02;3.40;;;;;;;8.96;95.86;101578.25;5032968;28;20083;-69
2021/10/23 07:40:03;;;;;;;6.30;3.50;;;;;;;8.99;95.71;101572.19;5017372;28;20123;-69
2021/10/23 07:42:29;;;;;;;4.63;3.30;;;;;;;9.04;96.00;101568.66;5005205;28;20026;-69
2021/10/23 07:44:56;;;;;;;4.38;3.60;;;;;;;9.09;95.73;101574.28;5017682;28;20037;-68
2021/10/23 07:47:22;;;;;;;8.55;4.07;;;;;;;9.14;96.31;101577.94;4983288;28;20068;-69
2021/10/23 07:49:47;;;;;;;6.43;3.90;;;;;;;9.21;95.87;101579.69;5034432;28;20030;-69
2021/10/23 07:52:13;;;;;;;6.20;3.30;;;;;;;9.28;95.72;101581.16;5032697;28;20480;-69
2021/10/23 07:54:38;;;;;;;9.57;3.85;;;;;;;9.37;95.63;101576.00;5001166;28;20045;-69
2021/10/23 07:57:04;;;;;;;4.47;3.17;;;;;;;9.46;95.80;101591.06;5003834;28;20040;-69
2021/10/23 07:59:31;;;;;;;8.18;3.92;;;;;;;9.56;96.30;101587.56;5018655;28;20036;-68
2021/10/23 08:02:00;;;;;;;7.07;3.72;;;;;;;9.64;96.66;101592.66;5034410;28;20025;-69
2021/10/23 08:04:26;;;;;;;7.97;4.30;;;;;;;9.77;96.93;101591.38;5006961;28;20391;-69
2021/10/23 08:06:52;;;;;;;9.05;4.68;;;;;;;9.88;97.83;101595.94;5013877;28;20113;-69
2021/10/23 08:09:17;;;;;;;8.95;4.82;;;;;;;10.00;98.10;101596.63;5034853;28;20033;-69
2021/10/23 08:11:43;;;;;;;9.35;4.25;;;;;;;10.14;98.73;101587.81;5039486;28;20037;-69
2021/10/23 08:14:12;;;;;;;8.85;4.50;;;;;;;10.27;98.67;101591.03;5016146;28;20088;-69
2021/10/23 08:16:38;;;;;;;7.45;4.35;;;;;;;10.43;97.87;101591.97;5001014;28;20033;-69
2021/10/23 08:19:03;;;;;;;7.32;3.95;;;;;;;10.59;98.06;101592.09;5013893;28;20041;-69
2021/10/23 08:21:29;;;;;;;6.70;3.70;;;;;;;10.73;97.60;101596.06;5017017;28;21129;-69
2021/10/23 08:23:54;;;;;;;6.72;4.03;;;;;;;10.88;97.71;101593.38;5016442;28;20050;-70
2021/10/23 08:26:20;;;;;;;7.45;4.20;;;;;;;11.03;96.66;101594.53;5000388;28;20030;-70
2021/10/23 08:28:45;;;;;;;7.28;4.15;;;;;;;11.18;95.70;101598.25;5018750;28;20037;-70
2021/10/23 08:31:11;;;;;;;9.13;3.50;;;;;;;11.35;95.74;101592.47;5010334;28;20022;-70
2021/10/23 08:33:37;;;;;;;7.00;3.60;;;;;;;11.50;95.74;101586.09;5003109;28;20450;-70
2021/10/23 08:36:05;;;;;;;7.45;3.70;;;;;;;11.66;95.18;101598.09;5000711;28;20057;-69
2021/10/23 08:38:31;;;;;;;8.30;4.45;;;;;;;11.79;95.45;101596.75;5033449;28;20116;-69
2021/10/23 08:40:57;;;;;;;7.35;3.85;;;;;;;11.95;94.74;101595.69;5018946;28;20030;-69
2021/10/23 08:43:23;;;;;;;7.90;3.67;;;;;;;12.07;93.84;101592.63;5015169;28;20116;-70
2021/10/23 08:45:48;;;;;;;8.73;3.83;;;;;;;12.22;93.31;101595.41;5017932;28;20064;-70
2021/10/23 08:48:14;;;;;;;6.97;3.42;;;;;;;12.34;92.24;101599.84;5001458;28;20029;-71
2021/10/23 08:50:40;;;;;;;5.93;2.95;;;;;;;12.47;92.20;101597.34;5001170;28;20533;-72
2021/10/23 08:53:05;;;;;;;8.18;3.67;;;;;;;12.61;91.24;101602.34;4981913;28;20038;-71
2021/10/23 08:55:31;;;;;;;3.80;2.63;;;;;;;12.73;91.35;101602.88;5013901;28;20032;-70
2021/10/23 08:57:56;;;;;;;7.72;3.33;;;;;;;12.85;90.55;101608.16;5034553;28;20028;-70
2021/10/23 09:00:22;;;;;;;4.35;3.08;;;;;;;12.95;89.99;101605.31;4999774;28;20041;-69
2021/10/23 09:02:51;;;;;;;7.13;3.00;;;;;;;13.10;89.48;101599.72;5016552;28;20482;-69
2021/10/23 09:05:17;;;;;;;7.72;3.47;;;;;;;13.23;88.83;101594.63;4988788;28;20505;-70
2021/10/23 09:07:46;;;;;;;7.78;3.10;;;;;;;13.31;88.19;101603.25;5001179;28;20029;-70
2021/10/23 09:10:12;;;;;;;8.38;3.00;;;;;;;13.38;87.30;101605.75;4980927;28;20048;-71
2021/10/23 09:12:38;;;;;;;6.68;2.88;;;;;;;13.49;86.55;101606.56;5007815;28;20164;-71
2021/10/23 09:15:19;;;;;;;6.18;2.92;;;;;;;13.56;85.77;101598.69;5033790;28;20026;-71
2021/10/23 09:18:00;;;;;;;5.80;3.15;;;;;;;13.67;85.40;101603.09;5033586;28;20037;-71
2021/10/23 09:20:25;;;;;;;5.05;2.50;;;;;;;13.75;85.15;101596.06;5013634;28;20037;-71
2021/10/23 09:22:52;;;;;;;7.13;2.88;;;;;;;13.83;85.04;101596.28;5021906;28;20091;-70
2021/10/23 09:25:27;;;;;;;7.05;2.97;;;;;;;13.97;82.43;101596.47;5031982;28;20045;-71
2021/10/23 09:27:58;;;;;;;4.85;2.70;;;;;;;14.05;82.83;101593.06;5034239;28;20433;-71
2021/10/23 09:30:34;;;;;;;8.15;2.30;;;;;;;14.14;82.91;101595.22;5032399;28;20748;-71
2021/10/23 09:33:05;;;;;;;5.95;2.80;;;;;;;14.18;81.34;101590.72;5033538;28;20036;-71
2021/10/23 09:35:31;;;;;;;5.25;2.47;;;;;;;14.22;81.80;101587.03;5032087;28;20482;-70
2021/10/23 09:37:58;;;;;;;3.78;2.10;;;;;;;14.31;82.36;101590.03;5035541;28;20026;-71
2021/10/23 09:40:25;;;;;;;7.88;2.63;;;;;;;14.39;81.33;101595.00;5030868;28;20038;-70
2021/10/23 09:43:08;;;;;;;5.80;2.20;;;;;;;14.46;81.82;101598.31;5033820;28;20057;-71
2021/10/23 09:45:35;;;;;;;8.05;2.50;;;;;;;14.49;80.40;101594.91;5034978;28;20497;-69
2021/10/23 09:48:08;;;;;;;6.72;2.20;;;;;;;14.57;80.05;101599.06;4998984;28;20508;-70
2021/10/23 09:50:33;;;;;;;;;;;;;;;14.63;80.56;101591.47;5059692;28;20041;-71
2021/10/23 09:53:01;;;;;;;4.20;1.73;;;;;;;14.72;80.88;101587.72;5037077;28;19909;-70
2021/10/23 09:55:29;;;;;;;5.40;1.90;;;;;;;14.83;81.09;101580.06;5003770;28;20102;-73
2021/10/23 09:58:12;;;;;;;5.05;1.88;;;;;;;14.91;80.64;101596.19;5007116;28;20036;-70
2021/10/23 10:00:38;;;;;;;5.25;1.73;;;;;;;15.05;80.21;101587.09;5025453;28;20108;-71
2021/10/23 10:03:04;;;;;;;8.27;1.67;;;;;;;15.12;79.05;101587.53;5010912;28;20026;-74
2021/10/23 10:05:33;;;;;;;4.32;1.63;;;;;;;15.22;79.90;101593.03;5039893;28;20029;-74
2021/10/23 10:08:00;;;;;;;2.47;1.25;;;;;;;15.31;79.40;101584.78;5005489;28;20052;-74
2021/10/23 10:10:25;;;;;;;4.95;1.60;;;;;;;15.41;78.77;101585.50;5019104;28;20502;-71
2021/10/23 10:12:51;;;;;;;3.92;1.70;;;;;;;15.48;77.25;101598.28;5002167;28;20033;-72
2021/10/23 10:15:17;;;;;;;5.47;1.55;;;;;;;15.56;75.83;101594.81;4974982;28;20026;-72
2021/10/23 10:17:42;;;;;;;7.20;1.40;;;;;;;15.61;73.15;101591.94;5017476;28;20037;-72
2021/10/23 10:20:09;;;;;;;4.80;1.30;;;;;;;15.62;72.54;101590.78;5012498;28;20033;-72
2021/10/23 10:22:35;;;;;;;6.95;1.38;;;;;;;15.66;73.05;101591.88;5017846;28;20033;-70
2021/10/23 10:25:21;;;;;;;4.72;1.60;;;;;;;15.71;71.61;101583.44;5016868;28;20048;-71
2021/10/23 10:27:47;;;;;;;2.97;1.00;;;;;;;15.74;68.92;101588.44;5020537;28;20030;-70
2021/10/23 10:30:40;;;;;;;3.30;1.20;;;;;;;15.76;68.18;101588.09;5003601;28;20036;-71
2021/10/23 10:33:25;;;;;;;;;;;;;;;15.74;67.87;101584.78;5030785;28;20121;-72
2021/10/23 10:36:16;;;;;;;6.03;1.33;;;;;;;15.79;67.41;101587.50;5035309;28;20176;-70
2021/10/23 10:39:02;;;;;;;2.83;0.90;;;;;;;15.83;66.76;101595.00;5009828;28;20038;-68
2021/10/23 10:44:12;;;;;;;1.73;0.77;;;;;;;15.90;63.23;101593.78;5017560;28;20030;-70
2021/10/23 10:47:04;;;;;;;8.02;1.40;;;;;;;15.93;62.44;101601.56;5036763;28;20033;-69
2021/10/23 10:49:54;;;;;;;2.50;1.00;;;;;;;15.97;62.33;101591.44;5015456;28;20057;-69
2021/10/23 10:52:38;;;;;;;3.90;1.00;;;;;;;15.99;62.19;101581.59;5019810;28;20432;-70
2021/10/23 10:55:16;;;;;;;4.85;1.27;;;;;;;16.07;63.21;101585.66;5032944;28;20029;-69
2021/10/23 10:58:01;;;;;;;4.45;1.30;;;;;;;16.10;64.48;101582.25;5033772;28;20032;-68
2021/10/23 11:00:44;;;;;;;5.57;1.10;;;;;;;16.21;62.65;101583.72;5052853;28;20033;-68
2021/10/23 11:03:45;;;;;;;4.00;1.20;;;;;;;16.24;63.28;101579.50;5036337;28;20441;-67
2021/10/23 11:09:12;;;;;;;3.45;0.80;;;;;;;16.28;63.51;101581.38;5025596;28;20036;-67
2021/10/23 11:11:49;;;;;;;3.45;0.80;;;;;;;16.42;64.29;101575.00;5036439;28;20044;-69
2021/10/23 11:14:21;;;;;;;5.75;1.00;;;;;;;16.59;60.83;101575.22;5034526;28;20034;-68
2021/10/23 11:16:53;;;;;;;5.82;1.20;;;;;;;16.68;60.18;101564.94;5034833;28;20033;-68
2021/10/23 11:19:25;;;;;;;4.53;0.90;;;;;;;16.81;60.01;101570.94;5033970;28;20061;-69
2021/10/23 11:21:51;;;;;;;3.60;0.90;;;;;;;16.97;57.84;101569.47;5030102;28;20034;-70
2021/10/23 11:24:17;;;;;;;3.38;0.73;;;;;;;17.09;57.78;101571.75;5020358;28;20052;-69
2021/10/23 11:26:46;;;;;;;3.97;1.00;;;;;;;17.15;56.05;101574.13;5033279;28;20486;-68
2021/10/23 11:29:40;;;;;;;2.90;0.70;;;;;;;17.22;55.78;101558.84;5030931;28;20034;-68
2021/10/23 11:32:05;;;;;;;3.30;0.90;;;;;;;17.25;56.01;101564.69;5016395;28;20048;-67
2021/10/23 11:34:35;;;;;;;2.47;0.73;;;;;;;17.26;55.87;101566.34;5001608;28;20451;-67
2021/10/23 11:37:10;;;;;;;3.13;0.82;;;;;;;17.30;55.10;101564.59;4998164;28;20064;-67